Time;durP1;ratioP1;P1;durP2;ratioP2;P2;SDS_P1;SDS_P2;PMS_P1;PMS_P2;Temp;Humidity;BMP_temperature;BMP_pressure;BME280_temperature;BME280_humidity;BME280_pressure;Samples;Min_cycle;Max_cycle;Signal;HPM_P1;HPM_P2
2022/11/12 00:02:07;;;;;;;7.60;4.15;;;8.40;99.90;;;;;;20793391;28;20037;-39
2022/11/12 00:12:08;;;;;;;11.60;5.25;;;8.30;99.90;;;;;;20797641;28;20243;-39
2022/11/12 00:22:09;;;;;;;6.80;3.83;;;8.20;99.90;;;;;;20809457;28;20045;-38
2022/11/12 00:32:10;;;;;;;8.57;4.55;;;8.30;99.90;;;;;;20801478;28;20069;-39
2022/11/12 00:42:11;;;;;;;9.48;4.32;;;8.10;99.90;;;;;;20825634;28;20119;-38
2022/11/12 00:52:13;;;;;;;11.18;4.07;;;8.10;99.90;;;;;;20801027;28;20049;-38
2022/11/12 01:02:14;;;;;;;7.07;3.72;;;8.00;99.90;;;;;;20805112;28;20524;-38
2022/11/12 01:12:15;;;;;;;6.00;3.72;;;8.10;99.90;;;;;;20797930;28;20052;-39
2022/11/12 01:22:16;;;;;;;7.75;4.75;;;8.00;99.90;;;;;;20770629;28;20441;-39
2022/11/12 01:32:17;;;;;;;6.88;4.47;;;8.10;99.90;;;;;;20747013;28;20500;-39
2022/11/12 01:42:17;;;;;;;9.48;3.47;;;8.20;99.90;;;;;;20755931;28;20061;-39
2022/11/12 01:52:28;;;;;;;9.15;4.50;;;8.30;99.90;;;;;;20764691;28;20136;-39
2022/11/12 02:02:30;;;;;;;9.32;6.53;;;8.40;99.90;;;;;;20785258;28;20036;-39
2022/11/12 02:22:51;;;;;;;9.20;6.25;;;8.50;99.90;;;;;;20794845;28;20910;-39
2022/11/12 02:32:52;;;;;;;14.95;6.65;;;8.60;99.90;;;;;;20790134;28;20216;-38
2022/11/12 02:42:53;;;;;;;8.20;4.47;;;8.60;99.90;;;;;;20768531;28;20554;-38
2022/11/12 02:52:54;;;;;;;8.18;4.10;;;8.70;99.90;;;;;;20780016;28;20092;-39
2022/11/12 03:02:57;;;;;;;8.55;4.20;;;8.80;99.90;;;;;;20784283;28;20278;-39
2022/11/12 03:13:00;;;;;;;9.13;5.03;;;8.70;99.90;;;;;;20785619;28;20111;-39
2022/11/12 03:23:07;;;;;;;16.60;8.07;;;8.60;99.90;;;;;;20787303;28;20076;-39
2022/11/12 03:33:10;;;;;;;17.00;9.10;;;8.60;99.90;;;;;;20782997;28;20511;-38
2022/11/12 03:43:11;;;;;;;18.02;8.93;;;8.50;99.90;;;;;;20794573;28;20124;-39
2022/11/12 03:53:12;;;;;;;15.65;9.55;;;8.50;99.90;;;;;;20766295;28;20077;-38
2022/11/12 04:03:13;;;;;;;12.07;7.15;;;8.60;99.90;;;;;;20791290;28;20161;-39
2022/11/12 04:13:26;;;;;;;13.40;6.38;;;8.60;99.90;;;;;;20784376;28;20032;-39
2022/11/12 04:23:28;;;;;;;6.75;4.35;;;8.50;99.90;;;;;;20787952;28;20148;-39
2022/11/12 04:33:29;;;;;;;9.70;5.53;;;8.50;99.90;;;;;;20777213;28;20166;-39
2022/11/12 04:53:50;;;;;;;10.65;6.32;;;8.20;99.90;;;;;;20771658;28;20641;-39
2022/11/12 05:03:50;;;;;;;9.82;4.72;;;8.00;99.90;;;;;;20773473;28;20112;-39
2022/11/12 05:13:51;;;;;;;9.73;5.75;;;7.90;99.90;;;;;;20788041;28;20056;-39
2022/11/12 05:23:52;;;;;;;7.18;3.78;;;7.80;99.90;;;;;;20804747;28;20033;-39
2022/11/12 05:33:54;;;;;;;6.97;3.72;;;7.60;99.90;;;;;;20795823;28;20053;-38
2022/11/12 05:43:54;;;;;;;10.32;5.07;;;7.40;99.90;;;;;;20796694;28;20158;-38
2022/11/12 05:53:56;;;;;;;9.23;4.93;;;7.30;99.90;;;;;;20804015;28;20049;-38
2022/11/12 06:03:57;;;;;;;7.95;5.43;;;7.20;99.90;;;;;;20786743;28;20073;-38
2022/11/12 06:13:58;;;;;;;7.43;5.20;;;7.00;99.90;;;;;;20786720;28;20041;-39
2022/11/12 06:23:59;;;;;;;8.27;4.75;;;6.90;99.90;;;;;;20779586;28;20133;-38
2022/11/12 06:34:02;;;;;;;10.65;5.78;;;6.80;99.90;;;;;;20767487;28;20047;-38
2022/11/12 06:44:03;;;;;;;9.32;5.78;;;6.70;99.90;;;;;;20772159;28;20217;-39
2022/11/12 06:54:05;;;;;;;11.13;6.28;;;6.70;99.90;;;;;;20767331;28;20426;-38
2022/11/12 07:04:06;;;;;;;12.15;6.72;;;6.60;99.90;;;;;;20764886;28;20041;-39
2022/11/12 07:14:08;;;;;;;11.52;6.63;;;6.60;99.90;;;;;;20743887;28;20139;-39
2022/11/12 07:24:09;;;;;;;12.02;6.25;;;6.70;99.90;;;;;;20792705;28;20539;-38
2022/11/12 07:34:10;;;;;;;9.45;5.10;;;6.80;99.90;;;;;;20786868;28;20127;-38
2022/11/12 07:44:11;;;;;;;12.88;6.15;;;6.90;99.90;;;;;;20806637;28;20045;-38
2022/11/12 07:54:12;;;;;;;11.90;6.45;;;7.00;99.90;;;;;;20782839;28;20183;-38
2022/11/12 08:04:13;;;;;;;12.13;7.18;;;7.10;99.90;;;;;;20747002;28;20492;-38
2022/11/12 08:14:15;;;;;;;9.25;6.13;;;7.20;99.90;;;;;;20801263;28;20595;-38
2022/11/12 08:24:16;;;;;;;9.07;5.47;;;7.40;99.90;;;;;;20799686;28;20275;-38
2022/11/12 08:34:17;;;;;;;8.00;5.10;;;7.70;99.90;;;;;;20777100;28;20064;-38
2022/11/12 08:44:18;;;;;;;8.55;4.88;;;8.00;99.90;;;;;;20781142;28;20045;-39
2022/11/12 08:54:19;;;;;;;8.57;5.22;;;8.30;99.90;;;;;;20787888;28;20110;-39
2022/11/12 09:04:20;;;;;;;7.47;3.78;;;8.60;99.90;;;;;;20767832;28;20563;-38
2022/11/12 09:14:21;;;;;;;5.88;4.20;;;9.00;99.90;;;;;;20787361;28;20080;-38
2022/11/12 09:24:22;;;;;;;6.00;3.83;;;9.20;99.90;;;;;;20794245;28;20480;-39
2022/11/12 09:34:23;;;;;;;6.60;3.80;;;9.50;99.90;;;;;;20773385;28;20129;-38
2022/11/12 09:44:24;;;;;;;7.20;3.88;;;9.80;99.90;;;;;;20777933;28;20239;-39
2022/11/12 09:54:29;;;;;;;5.68;3.90;;;10.00;99.90;;;;;;20753876;28;20049;-38
2022/11/12 10:05:07;;;;;;;7.07;3.78;;;10.40;99.90;;;;;;20775595;28;20066;-39
2022/11/12 10:25:59;;;;;;;4.63;1.88;;;11.30;99.90;;;;;;20801969;28;21635;-38
2022/11/12 10:36:21;;;;;;;3.50;2.25;;;11.80;99.90;;;;;;20818104;28;20079;-38
2022/11/12 10:46:28;;;;;;;2.95;2.05;;;12.30;99.90;;;;;;20824548;28;20103;-37
2022/11/12 10:56:30;;;;;;;2.22;1.30;;;12.90;99.90;;;;;;20825093;28;20106;-37
2022/11/12 11:06:32;;;;;;;3.15;1.70;;;13.70;99.90;;;;;;20806716;28;20072;-37
2022/11/12 11:16:48;;;;;;;2.13;0.95;;;14.70;99.90;;;;;;20808632;28;20083;-37
2022/11/12 11:27:23;;;;;;;2.47;1.25;;;15.30;99.90;;;;;;20809553;28;20624;-37
2022/11/12 11:37:27;;;;;;;2.50;1.27;;;15.80;99.90;;;;;;20796707;28;20112;-37
2022/11/12 11:47:43;;;;;;;2.40;1.40;;;16.60;99.90;;;;;;20797909;28;20347;-37
2022/11/12 11:58:04;;;;;;;2.53;1.20;;;16.70;99.90;;;;;;20802617;28;21830;-37
2022/11/12 12:08:30;;;;;;;1.88;0.80;;;17.20;99.90;;;;;;20810581;28;20571;-37
2022/11/12 12:18:31;;;;;;;2.35;1.20;;;17.70;99.90;;;;;;20783110;28;20080;-37
2022/11/12 12:28:50;;;;;;;3.20;1.33;;;17.70;98.10;;;;;;20826756;28;20076;-37
2022/11/12 12:39:09;;;;;;;3.38;1.90;;;18.30;96.80;;;;;;20760515;28;21817;-37
2022/11/12 12:49:20;;;;;;;1.98;0.85;;;18.90;96.60;;;;;;20776679;28;20436;-37
2022/11/12 12:59:22;;;;;;;2.40;1.02;;;19.20;95.40;;;;;;20793004;28;20041;-37
2022/11/12 13:09:25;;;;;;;4.25;1.05;;;19.30;94.20;;;;;;20788916;28;20045;-37
2022/11/12 13:19:27;;;;;;;1.92;1.10;;;19.70;94.70;;;;;;20791126;28;20064;-37
2022/11/12 13:29:28;;;;;;;1.92;1.13;;;20.00;92.60;;;;;;20778820;28;20130;-38
2022/11/12 13:39:33;;;;;;;2.97;1.55;;;19.20;94.50;;;;;;20784475;28;20482;-37
2022/11/12 13:49:36;;;;;;;3.20;1.45;;;18.00;98.00;;;;;;20788616;28;20326;-37
2022/11/12 13:59:37;;;;;;;2.78;1.13;;;17.30;99.70;;;;;;20804388;28;20041;-37
2022/11/12 14:10:19;;;;;;;3.85;1.85;;;16.80;99.90;;;;;;20816802;28;20041;-37
2022/11/12 14:20:26;;;;;;;2.55;1.20;;;16.60;99.90;;;;;;20771133;28;20228;-37
2022/11/12 14:30:30;;;;;;;2.35;0.60;;;17.20;99.90;;;;;;20837340;28;20058;-37
2022/11/12 14:40:35;;;;;;;1.55;0.65;;;18.10;99.10;;;;;;20815708;28;20037;-38
2022/11/12 14:50:36;;;;;;;1.75;0.93;;;18.10;98.50;;;;;;20828560;28;20042;-37
2022/11/12 15:00:45;;;;;;;1.25;0.40;;;17.20;98.40;;;;;;20834371;28;20285;-37
2022/11/12 15:10:46;;;;;;;2.80;1.25;;;16.40;99.90;;;;;;20820813;28;20102;-37
2022/11/12 15:21:11;;;;;;;2.70;0.90;;;15.90;99.90;;;;;;20804299;28;20097;-38
2022/11/12 15:31:18;;;;;;;2.03;1.10;;;15.40;99.90;;;;;;20798886;28;20115;-37
2022/11/12 15:41:26;;;;;;;2.07;0.70;;;15.00;99.90;;;;;;20794636;28;20084;-37
2022/11/12 15:51:26;;;;;;;2.97;1.30;;;14.90;99.90;;;;;;20805373;28;20115;-37
2022/11/12 16:01:28;;;;;;;3.55;1.60;;;14.60;99.90;;;;;;20821028;28;20044;-37
2022/11/12 16:11:35;;;;;;;2.53;1.35;;;14.40;99.90;;;;;;20796533;28;20050;-37
2022/11/12 16:21:36;;;;;;;3.77;1.63;;;14.00;99.90;;;;;;20814245;28;20084;-37
2022/11/12 16:31:37;;;;;;;3.05;1.70;;;13.70;99.90;;;;;;20796062;28;20048;-37
2022/11/12 16:41:38;;;;;;;3.85;2.35;;;13.30;99.90;;;;;;20802055;28;20072;-36
2022/11/12 16:51:39;;;;;;;9.65;3.45;;;12.90;99.90;;;;;;20801248;28;20170;-37
2022/11/12 17:01:40;;;;;;;7.03;3.08;;;12.70;99.90;;;;;;20820342;28;20040;-37
2022/11/12 17:11:41;;;;;;;4.95;3.05;;;12.60;99.90;;;;;;20790334;28;20149;-37
2022/11/12 17:21:43;;;;;;;5.93;3.90;;;12.40;99.90;;;;;;20809241;28;20543;-37
2022/11/12 17:31:48;;;;;;;6.65;4.57;;;12.20;99.90;;;;;;20793990;28;21661;-38
2022/11/12 17:41:49;;;;;;;11.68;4.20;;;12.10;99.90;;;;;;20796422;28;20075;-37
2022/11/12 17:51:50;;;;;;;6.63;3.50;;;12.00;99.90;;;;;;20804180;28;20372;-37
2022/11/12 18:01:51;;;;;;;6.13;3.90;;;11.70;99.90;;;;;;20802750;28;20045;-37
2022/11/12 18:11:53;;;;;;;7.45;3.65;;;11.40;99.90;;;;;;20800568;28;20111;-37
2022/11/12 18:21:55;;;;;;;9.95;4.90;;;11.20;99.90;;;;;;20810827;28;20065;-37
2022/11/12 18:31:57;;;;;;;10.23;5.07;;;11.10;99.90;;;;;;20806181;28;20141;-37
2022/11/12 18:41:58;;;;;;;8.20;5.22;;;10.90;99.90;;;;;;20784629;28;20564;-37
2022/11/12 18:51:59;;;;;;;7.28;4.53;;;10.90;99.90;;;;;;20803380;28;20567;-37
2022/11/12 19:02:00;;;;;;;10.95;4.85;;;10.90;99.90;;;;;;20810658;28;20738;-37
2022/11/12 19:12:01;;;;;;;10.75;5.03;;;10.80;99.90;;;;;;20808470;28;20048;-37
2022/11/12 19:22:02;;;;;;;14.80;8.93;;;10.70;99.90;;;;;;20772551;28;20528;-37
2022/11/12 19:32:03;;;;;;;8.43;5.60;;;10.60;99.90;;;;;;20782694;28;20079;-38
2022/11/12 19:42:06;;;;;;;14.95;6.43;;;10.50;99.90;;;;;;20785938;28;20159;-37
2022/11/12 19:52:07;;;;;;;11.93;7.47;;;10.50;99.90;;;;;;20764928;28;20202;-37
2022/11/12 20:02:11;;;;;;;10.50;6.13;;;10.30;99.90;;;;;;20772077;28;20163;-37
2022/11/12 20:12:12;;;;;;;6.95;3.90;;;10.20;99.90;;;;;;20779152;28;20136;-37
2022/11/12 20:22:13;;;;;;;8.02;5.03;;;10.20;99.90;;;;;;20779859;28;20148;-37
2022/11/12 20:32:14;;;;;;;7.85;4.38;;;10.10;99.90;;;;;;20780724;28;20160;-37
2022/11/12 20:42:15;;;;;;;8.63;5.30;;;10.00;99.90;;;;;;20770277;28;21063;-38
2022/11/12 20:52:17;;;;;;;5.80;3.40;;;9.90;99.90;;;;;;20774302;28;20504;-38
2022/11/12 21:02:18;;;;;;;5.22;3.45;;;9.70;99.90;;;;;;20769937;28;20041;-38
2022/11/12 21:12:19;;;;;;;8.00;3.55;;;9.60;99.90;;;;;;20763436;28;20524;-38
2022/11/12 21:22:20;;;;;;;7.70;4.85;;;9.30;99.90;;;;;;20785705;28;20040;-39
2022/11/12 21:32:21;;;;;;;5.50;3.00;;;9.30;99.90;;;;;;20784279;28;20052;-38
2022/11/12 21:42:22;;;;;;;6.38;3.45;;;9.20;99.90;;;;;;20769587;28;20118;-38
2022/11/12 21:52:23;;;;;;;8.40;3.70;;;9.10;99.90;;;;;;20785202;28;20095;-39
2022/11/12 22:02:24;;;;;;;8.70;5.28;;;8.90;99.90;;;;;;20786941;28;20129;-39
2022/11/12 22:12:25;;;;;;;7.68;4.55;;;8.70;99.90;;;;;;20715946;28;1332943;-39
2022/11/12 22:22:26;;;;;;;6.05;3.42;;;8.60;99.90;;;;;;20794296;28;20037;-39
2022/11/12 22:32:27;;;;;;;6.28;4.28;;;8.70;99.90;;;;;;20782475;28;20045;-38
2022/11/12 22:42:28;;;;;;;7.60;4.03;;;8.60;99.90;;;;;;20787240;28;20136;-38
2022/11/12 22:52:29;;;;;;;6.55;4.28;;;8.50;99.90;;;;;;20788755;28;20144;-38
2022/11/12 23:02:30;;;;;;;8.70;4.65;;;8.50;99.90;;;;;;20780252;28;20524;-38
2022/11/12 23:12:31;;;;;;;9.52;4.78;;;8.30;99.90;;;;;;20810752;28;20045;-39
2022/11/12 23:22:32;;;;;;;7.28;4.60;;;8.30;99.90;;;;;;20772738;28;20102;-38
2022/11/12 23:32:33;;;;;;;10.43;5.28;;;8.40;99.90;;;;;;20773372;28;20187;-38
2022/11/12 23:42:34;;;;;;;5.80;2.85;;;8.30;99.90;;;;;;20784127;28;20068;-38
2022/11/12 23:52:35;;;;;;;6.18;4.38;;;8.40;99.90;;;;;;20780361;28;20113;-39
